createdAt,value
2018-07-17T00:01:37.539Z,5.13
2018-07-17T00:04:12.542Z,6.13
2018-07-17T00:06:47.736Z,9.93
2018-07-17T00:09:22.571Z,7.27
2018-07-17T00:11:57.419Z,11.60
2018-07-17T00:14:32.157Z,5.43
2018-07-17T00:17:07.478Z,7.10
2018-07-17T00:19:42.301Z,6.50
2018-07-17T00:22:17.565Z,6.70
2018-07-17T00:24:52.448Z,5.87
2018-07-17T00:27:27.365Z,6.17
2018-07-17T00:30:02.797Z,6.10
2018-07-17T00:32:37.896Z,5.07
2018-07-17T00:35:13.196Z,7.67
2018-07-17T00:37:48.399Z,8.53
2018-07-17T00:40:22.970Z,5.77
2018-07-17T00:42:58.033Z,6.40
2018-07-17T00:45:32.947Z,7.73
2018-07-17T00:48:08.590Z,7.47
2018-07-17T00:50:43.787Z,8.30
2018-07-17T00:53:18.592Z,9.50
2018-07-17T00:55:54.262Z,7.73
2018-07-17T00:58:29.510Z,5.60
2018-07-17T01:01:03.582Z,5.30
2018-07-17T01:03:44.710Z,5.43
2018-07-17T01:06:24.745Z,7.40
2018-07-17T01:09:04.905Z,10.70
2018-07-17T01:11:45.210Z,6.63
2018-07-17T01:14:33.067Z,7.53
2018-07-17T01:17:08.379Z,6.13
2018-07-17T01:19:43.243Z,7.83
2018-07-17T01:22:19.168Z,11.83
2018-07-17T01:24:54.008Z,9.70
2018-07-17T01:27:28.760Z,6.87
2018-07-17T01:30:04.296Z,8.03
2018-07-17T01:32:39.339Z,6.90
2018-07-17T01:35:14.441Z,7.83
2018-07-17T01:37:50.818Z,7.20
2018-07-17T01:40:26.178Z,9.63
2018-07-17T01:43:01.397Z,12.50
2018-07-17T01:45:36.866Z,8.23
2018-07-17T01:48:12.302Z,9.73
2018-07-17T01:50:47.811Z,16.90
2018-07-17T01:53:22.812Z,8.47
2018-07-17T01:55:57.919Z,9.73
2018-07-17T01:58:32.966Z,10.33
2018-07-17T02:01:08.203Z,9.20
2018-07-17T02:03:44.136Z,10.30
2018-07-17T02:06:19.178Z,9.20
2018-07-17T02:08:53.896Z,12.70
2018-07-17T02:11:28.991Z,12.77
2018-07-17T02:14:04.390Z,7.80
2018-07-17T02:16:39.450Z,10.20
2018-07-17T02:19:14.608Z,7.97
2018-07-17T02:21:50.335Z,9.10
2018-07-17T02:24:25.634Z,10.10
2018-07-17T02:27:00.906Z,9.10
2018-07-17T02:29:35.638Z,10.00
2018-07-17T02:32:10.934Z,13.90
2018-07-17T02:34:46.181Z,7.83
2018-07-17T02:37:21.013Z,7.23
2018-07-17T02:39:56.373Z,8.83
2018-07-17T02:42:31.130Z,8.90
2018-07-17T02:45:06.535Z,10.53
2018-07-17T02:47:41.601Z,11.23
2018-07-17T02:50:16.163Z,9.60
2018-07-17T02:52:51.543Z,9.50
2018-07-17T02:55:26.454Z,16.10
2018-07-17T02:58:02.123Z,8.90
2018-07-17T03:00:37.222Z,10.10
2018-07-17T03:03:12.888Z,7.50
2018-07-17T03:05:47.951Z,16.70
2018-07-17T03:08:22.978Z,7.73
2018-07-17T03:10:58.241Z,13.10
2018-07-17T03:13:33.850Z,8.20
2018-07-17T03:16:09.315Z,11.53
2018-07-17T03:18:44.244Z,9.10
2018-07-17T03:21:19.222Z,7.90
2018-07-17T03:23:54.357Z,10.77
2018-07-17T03:26:29.334Z,7.67
2018-07-17T03:29:04.886Z,8.40
2018-07-17T03:31:39.852Z,12.93
2018-07-17T03:34:15.709Z,10.40
2018-07-17T03:36:51.675Z,14.53
2018-07-17T03:39:26.779Z,9.97
2018-07-17T03:42:02.262Z,8.83
2018-07-17T03:44:37.377Z,11.17
2018-07-17T03:47:12.896Z,10.67
2018-07-17T03:49:47.902Z,10.10
2018-07-17T03:52:22.919Z,10.30
2018-07-17T03:54:57.783Z,17.60
2018-07-17T03:57:32.716Z,16.53
2018-07-17T04:00:08.385Z,16.33
2018-07-17T04:02:43.482Z,14.70
2018-07-17T04:05:19.288Z,13.30
2018-07-17T04:07:54.372Z,14.27
2018-07-17T04:10:29.552Z,13.13
2018-07-17T04:13:05.020Z,12.47
2018-07-17T04:15:40.227Z,14.80
2018-07-17T04:18:15.893Z,12.23
2018-07-17T04:20:51.056Z,17.47
2018-07-17T04:23:25.918Z,11.67
2018-07-17T04:26:00.980Z,17.47
2018-07-17T04:28:35.975Z,16.23
2018-07-17T04:31:11.513Z,14.37
2018-07-17T04:33:46.691Z,18.97
2018-07-17T04:36:21.475Z,15.43
2018-07-17T04:38:56.831Z,15.13
2018-07-17T04:41:32.361Z,17.10
2018-07-17T04:44:07.659Z,15.97
2018-07-17T04:46:43.107Z,15.30
2018-07-17T04:49:18.501Z,16.20
2018-07-17T04:51:53.809Z,15.77
2018-07-17T04:54:29.932Z,15.13
2018-07-17T04:57:05.696Z,14.50
2018-07-17T04:59:40.914Z,16.20
2018-07-17T05:02:16.088Z,18.40
2018-07-17T05:04:51.097Z,16.97
2018-07-17T05:07:26.468Z,17.30
2018-07-17T05:10:02.679Z,17.17
2018-07-17T05:12:37.942Z,17.60
2018-07-17T05:15:13.124Z,17.00
2018-07-17T05:17:48.424Z,17.80
2018-07-17T05:20:24.391Z,16.73
2018-07-17T05:22:59.834Z,16.03
2018-07-17T05:25:34.641Z,19.30
2018-07-17T05:28:10.382Z,19.13
2018-07-17T05:30:45.820Z,17.17
2018-07-17T05:33:21.951Z,17.43
2018-07-17T05:35:57.277Z,17.63
2018-07-17T05:38:33.766Z,19.23
2018-07-17T05:41:09.165Z,18.20
2018-07-17T05:43:44.102Z,18.93
2018-07-17T05:46:19.273Z,18.80
2018-07-17T05:48:54.698Z,18.23
2018-07-17T05:51:30.050Z,20.93
2018-07-17T05:54:05.166Z,20.03
2018-07-17T05:56:40.130Z,21.30
2018-07-17T05:59:15.783Z,28.00
2018-07-17T06:01:51.006Z,19.40
2018-07-17T06:04:27.841Z,20.07
2018-07-17T06:07:03.269Z,18.47
2018-07-17T06:09:38.311Z,18.87
2018-07-17T06:12:13.608Z,20.37
2018-07-17T06:14:48.673Z,22.23
2018-07-17T06:17:23.974Z,19.27
2018-07-17T06:19:59.483Z,30.33
2018-07-17T06:22:35.140Z,20.40
2018-07-17T06:25:10.873Z,19.27
2018-07-17T06:27:45.798Z,17.93
2018-07-17T06:30:21.148Z,19.33
2018-07-17T06:32:56.672Z,23.50
2018-07-17T06:35:32.290Z,19.07
2018-07-17T06:38:08.220Z,21.53
2018-07-17T06:40:43.269Z,17.60
2018-07-17T06:43:19.519Z,20.77
2018-07-17T06:45:55.017Z,16.70
2018-07-17T06:48:30.398Z,16.77
2018-07-17T06:51:05.646Z,18.77
2018-07-17T06:53:40.143Z,18.30
2018-07-17T06:56:15.727Z,17.07
2018-07-17T06:58:50.736Z,17.23
2018-07-17T07:01:26.016Z,21.63
2018-07-17T07:04:01.318Z,18.30
2018-07-17T07:06:36.189Z,17.77
2018-07-17T07:09:11.634Z,20.67
2018-07-17T07:11:46.864Z,19.03
2018-07-17T07:14:21.609Z,20.47
2018-07-17T07:16:56.782Z,16.77
2018-07-17T07:19:31.578Z,18.80
2018-07-17T07:22:13.217Z,18.77
2018-07-17T07:24:48.392Z,18.73
2018-07-17T07:27:23.353Z,19.63
2018-07-17T07:29:58.315Z,17.33
2018-07-17T07:32:33.548Z,16.40
2018-07-17T07:35:08.843Z,16.60
2018-07-17T07:37:45.477Z,15.70
2018-07-17T07:40:20.879Z,18.83
2018-07-17T07:42:55.981Z,16.20
2018-07-17T07:45:30.948Z,16.20
2018-07-17T07:48:06.145Z,15.37
2018-07-17T07:50:41.446Z,18.30
2018-07-17T07:53:16.968Z,16.80
2018-07-17T07:55:52.601Z,19.63
2018-07-17T07:58:28.064Z,16.70
2018-07-17T08:01:03.503Z,16.27
2018-07-17T08:03:38.423Z,18.90
2018-07-17T08:06:14.371Z,16.70
2018-07-17T08:08:49.315Z,17.50
2018-07-17T08:11:24.492Z,17.43
2018-07-17T08:13:59.579Z,19.53
2018-07-17T08:16:34.676Z,17.63
2018-07-17T08:19:09.653Z,18.33
2018-07-17T08:21:45.292Z,18.00
2018-07-17T08:24:21.461Z,19.90
2018-07-17T08:26:56.859Z,16.57
2018-07-17T08:29:32.270Z,18.67
2018-07-17T08:32:07.651Z,19.43
2018-07-17T08:34:42.872Z,17.20
2018-07-17T08:37:18.422Z,18.23
2018-07-17T08:39:53.716Z,19.97
2018-07-17T08:42:28.912Z,19.77
2018-07-17T08:45:04.062Z,18.40
2018-07-17T08:47:39.030Z,17.80
2018-07-17T08:50:14.009Z,18.17
2018-07-17T08:52:49.726Z,19.77
2018-07-17T08:55:24.561Z,23.93
2018-07-17T08:58:00.354Z,18.00
2018-07-17T09:00:35.685Z,16.23
2018-07-17T09:03:10.856Z,15.33
2018-07-17T09:05:45.987Z,15.27
2018-07-17T09:08:21.314Z,15.80
2018-07-17T09:10:56.297Z,17.20
2018-07-17T09:13:31.767Z,13.80
2018-07-17T09:16:06.736Z,10.50
2018-07-17T09:18:41.977Z,12.03
2018-07-17T09:21:16.949Z,14.10
2018-07-17T09:23:52.001Z,12.57
2018-07-17T09:26:27.595Z,11.40
2018-07-17T09:29:03.172Z,9.87
2018-07-17T09:31:38.604Z,15.73
2018-07-17T09:34:13.937Z,11.00
2018-07-17T09:36:49.399Z,8.83
2018-07-17T09:39:24.496Z,11.00
2018-07-17T09:41:59.504Z,9.87
2018-07-17T09:44:34.593Z,9.27
2018-07-17T09:47:09.756Z,7.50
2018-07-17T09:49:44.599Z,10.20
2018-07-17T09:52:19.830Z,8.30
2018-07-17T09:54:55.202Z,8.50
2018-07-17T09:57:30.404Z,9.30
2018-07-17T10:00:05.357Z,11.60
2018-07-17T10:02:40.471Z,9.03
2018-07-17T10:05:15.927Z,7.63
2018-07-17T10:07:50.843Z,7.50
2018-07-17T10:10:26.041Z,8.80
2018-07-17T10:13:01.010Z,7.77
2018-07-17T10:15:36.547Z,7.50
2018-07-17T10:18:12.158Z,6.23
2018-07-17T10:20:48.199Z,9.37
2018-07-17T10:23:23.208Z,9.17
2018-07-17T10:25:58.168Z,6.90
2018-07-17T10:28:33.163Z,6.90
2018-07-17T10:31:08.066Z,8.60
2018-07-17T10:33:43.453Z,7.07
2018-07-17T10:36:18.149Z,6.20
2018-07-17T10:38:53.438Z,6.70
2018-07-17T10:41:28.545Z,6.93
2018-07-17T10:44:03.573Z,5.77
2018-07-17T10:46:39.195Z,5.83
2018-07-17T10:49:14.818Z,7.57
2018-07-17T10:51:49.787Z,5.90
2018-07-17T10:54:25.041Z,5.40
2018-07-17T10:57:00.576Z,4.70
2018-07-17T10:59:35.520Z,7.03
2018-07-17T11:02:10.593Z,4.50
2018-07-17T11:04:45.631Z,6.60
2018-07-17T11:07:21.277Z,3.90
2018-07-17T11:09:56.926Z,4.43
2018-07-17T11:12:32.327Z,5.03
2018-07-17T11:15:07.742Z,3.70
2018-07-17T11:17:43.574Z,3.77
2018-07-17T11:20:18.641Z,4.03
2018-07-17T11:22:53.755Z,4.13
2018-07-17T11:25:28.681Z,4.60
2018-07-17T11:28:03.786Z,3.90
2018-07-17T11:30:38.861Z,6.97
2018-07-17T11:33:13.933Z,4.77
2018-07-17T11:35:49.102Z,4.60
2018-07-17T11:38:24.265Z,4.23
2018-07-17T11:40:59.067Z,7.80
2018-07-17T11:43:34.162Z,3.63
2018-07-17T11:46:09.078Z,3.43
2018-07-17T11:48:43.976Z,3.73
2018-07-17T11:51:19.474Z,4.00
2018-07-17T11:53:54.568Z,7.60
2018-07-17T11:56:29.709Z,4.00
2018-07-17T11:59:11.196Z,6.80
2018-07-17T12:01:46.340Z,4.10
2018-07-17T12:04:21.338Z,4.30
2018-07-17T12:06:56.179Z,5.80
2018-07-17T12:09:31.714Z,4.47
2018-07-17T12:12:07.370Z,4.43
2018-07-17T12:14:42.391Z,3.90
2018-07-17T12:17:17.963Z,4.40
2018-07-17T12:19:53.440Z,3.90
2018-07-17T12:22:28.341Z,5.20
2018-07-17T12:25:03.404Z,29.13
2018-07-17T12:27:38.257Z,4.73
2018-07-17T12:30:13.546Z,5.07
2018-07-17T12:32:48.894Z,4.53
2018-07-17T12:35:23.863Z,4.80
2018-07-17T12:37:59.146Z,4.30
2018-07-17T12:40:34.353Z,5.43
2018-07-17T12:43:09.253Z,4.00
2018-07-17T12:45:44.762Z,4.90
2018-07-17T12:48:19.781Z,4.50
2018-07-17T12:50:54.874Z,4.30
2018-07-17T12:53:30.268Z,7.97
2018-07-17T12:56:05.646Z,3.37
2018-07-17T12:58:41.286Z,4.93
2018-07-17T13:01:16.748Z,4.20
2018-07-17T13:03:51.739Z,4.17
2018-07-17T13:06:27.740Z,5.80
2018-07-17T13:09:03.138Z,3.93
2018-07-17T13:11:38.270Z,3.33
2018-07-17T13:14:13.575Z,3.70
2018-07-17T13:16:48.366Z,4.70
2018-07-17T13:19:23.456Z,5.90
2018-07-17T13:21:58.435Z,5.90
2018-07-17T13:24:34.255Z,6.00
2018-07-17T13:27:10.097Z,3.90
2018-07-17T13:29:45.366Z,3.70
2018-07-17T13:32:20.736Z,4.77
2018-07-17T13:34:55.890Z,3.73
2018-07-17T13:37:31.140Z,3.93
2018-07-17T13:40:06.416Z,3.50
2018-07-17T13:42:42.678Z,3.67
2018-07-17T13:45:17.984Z,6.73
2018-07-17T13:47:53.311Z,3.83
2018-07-17T13:50:28.183Z,4.10
2018-07-17T13:53:04.230Z,3.43
2018-07-17T13:55:39.666Z,4.80
2018-07-17T13:58:14.826Z,3.57
2018-07-17T14:00:50.388Z,4.37
2018-07-17T14:03:25.588Z,5.37
2018-07-17T14:06:00.769Z,5.30
2018-07-17T14:08:36.095Z,4.67
2018-07-17T14:11:11.282Z,4.70
2018-07-17T14:13:46.488Z,3.37
2018-07-17T14:16:21.862Z,3.60
2018-07-17T14:18:57.223Z,3.47
2018-07-17T14:21:32.331Z,3.90
2018-07-17T14:24:07.930Z,4.53
2018-07-17T14:26:43.062Z,4.83
2018-07-17T14:29:18.322Z,10.23
2018-07-17T14:31:53.169Z,3.37
2018-07-17T14:34:28.390Z,4.10
2018-07-17T14:37:03.780Z,3.37
2018-07-17T14:39:39.010Z,7.40
2018-07-17T14:42:14.336Z,3.63
2018-07-17T14:44:49.541Z,3.30
2018-07-17T14:47:26.024Z,5.00
2018-07-17T14:50:00.815Z,3.47
2018-07-17T14:52:36.298Z,4.80
2018-07-17T14:55:12.417Z,7.40
2018-07-17T14:57:47.495Z,3.83
2018-07-17T15:00:22.316Z,3.80
2018-07-17T15:02:57.382Z,5.53
2018-07-17T15:05:32.332Z,3.67
2018-07-17T15:08:07.349Z,10.17
2018-07-17T15:10:42.501Z,5.93
2018-07-17T15:13:18.123Z,4.13
2018-07-17T15:15:53.091Z,4.70
2018-07-17T15:18:28.418Z,4.80
2018-07-17T15:21:03.929Z,4.87
2018-07-17T15:23:41.768Z,8.20
2018-07-17T15:26:16.829Z,5.07
2018-07-17T15:28:51.857Z,5.70
2018-07-17T15:31:27.064Z,6.80
2018-07-17T15:34:01.662Z,6.03
2018-07-17T15:36:36.566Z,6.43
2018-07-17T15:39:12.563Z,6.03
2018-07-17T15:41:47.468Z,6.00
2018-07-17T15:44:21.933Z,6.90
2018-07-17T15:46:57.418Z,9.13
2018-07-17T15:49:32.882Z,5.80
2018-07-17T15:52:07.839Z,6.70
2018-07-17T15:54:43.088Z,6.83
2018-07-17T15:57:18.235Z,6.60
2018-07-17T15:59:53.373Z,6.33
2018-07-17T16:02:29.104Z,6.20
2018-07-17T16:05:04.155Z,6.03
2018-07-17T16:07:39.149Z,6.77
2018-07-17T16:10:13.771Z,6.47
2018-07-17T16:12:48.746Z,9.40
2018-07-17T16:15:23.989Z,6.50
2018-07-17T16:17:59.139Z,10.30
2018-07-17T16:20:34.200Z,5.47
2018-07-17T16:23:09.363Z,5.60
2018-07-17T16:25:44.475Z,5.70
2018-07-17T16:28:19.529Z,10.00
2018-07-17T16:30:54.546Z,6.23
2018-07-17T16:33:29.764Z,5.83
2018-07-17T16:36:06.159Z,6.77
2018-07-17T16:38:40.964Z,6.20
2018-07-17T16:41:15.969Z,6.50
2018-07-17T16:43:51.414Z,6.13
2018-07-17T16:46:27.057Z,6.30
2018-07-17T16:49:02.754Z,6.30
2018-07-17T16:51:37.805Z,5.93
2018-07-17T16:54:13.328Z,7.80
2018-07-17T16:56:48.927Z,6.07
2018-07-17T16:59:24.114Z,8.40
2018-07-17T17:01:59.528Z,5.50
2018-07-17T17:04:34.376Z,5.37
2018-07-17T17:07:09.808Z,6.50
2018-07-17T17:09:45.007Z,6.00
2018-07-17T17:12:19.976Z,5.77
2018-07-17T17:14:55.365Z,8.47
2018-07-17T17:17:30.721Z,6.80
2018-07-17T17:20:05.994Z,15.43
2018-07-17T17:22:41.074Z,10.43
2018-07-17T17:25:16.075Z,12.53
2018-07-17T17:27:51.515Z,4.67
2018-07-17T17:30:26.535Z,6.70
2018-07-17T17:33:02.043Z,7.67
2018-07-17T17:35:37.011Z,7.10
2018-07-17T17:38:12.187Z,4.63
2018-07-17T17:40:47.141Z,7.23
2018-07-17T17:43:22.390Z,5.50
2018-07-17T17:45:58.082Z,5.90
2018-07-17T17:48:33.244Z,5.90
2018-07-17T17:51:08.778Z,5.77
2018-07-17T17:53:44.252Z,3.97
2018-07-17T17:56:21.066Z,3.90
2018-07-17T17:58:56.674Z,6.93
2018-07-17T18:01:34.076Z,3.90
2018-07-17T18:04:09.625Z,5.07
2018-07-17T18:06:44.465Z,6.03
2018-07-17T18:09:19.616Z,3.90
2018-07-17T18:11:55.058Z,13.77
2018-07-17T18:14:31.465Z,7.10
2018-07-17T18:17:07.821Z,10.70
2018-07-17T18:19:43.479Z,8.97
2018-07-17T18:22:18.799Z,6.83
2018-07-17T18:24:54.332Z,10.93
2018-07-17T18:27:29.976Z,8.50
2018-07-17T18:30:05.718Z,9.67
2018-07-17T18:32:41.042Z,8.63
2018-07-17T18:35:19.530Z,12.50
2018-07-17T18:37:54.624Z,7.67
2018-07-17T18:40:29.916Z,8.13
2018-07-17T18:43:05.094Z,8.67
2018-07-17T18:45:39.671Z,7.83
2018-07-17T18:48:14.977Z,7.80
2018-07-17T18:50:50.513Z,9.17
2018-07-17T18:53:26.090Z,11.73
2018-07-17T18:56:01.585Z,15.83
2018-07-17T18:58:37.252Z,7.57
2018-07-17T19:01:13.130Z,5.83
2018-07-17T19:03:48.247Z,13.83
2018-07-17T19:06:23.719Z,8.90
2018-07-17T19:08:58.648Z,4.57
2018-07-17T19:11:34.125Z,6.83
2018-07-17T19:14:09.685Z,8.10
2018-07-17T19:16:44.894Z,5.87
2018-07-17T19:19:20.547Z,9.63
2018-07-17T19:21:55.657Z,6.37
2018-07-17T19:24:30.906Z,12.00
2018-07-17T19:27:06.232Z,6.43
2018-07-17T19:29:41.792Z,5.67
2018-07-17T19:32:16.706Z,8.07
2018-07-17T19:34:51.837Z,4.43
2018-07-17T19:37:27.092Z,10.20
2018-07-17T19:40:02.019Z,5.70
2018-07-17T19:42:37.488Z,6.33
2018-07-17T19:45:12.363Z,11.73
2018-07-17T19:47:47.860Z,5.50
2018-07-17T19:50:22.944Z,9.53
2018-07-17T19:52:58.267Z,4.60
2018-07-17T19:55:33.710Z,9.20
2018-07-17T19:58:09.232Z,7.83
2018-07-17T20:00:44.326Z,7.10
2018-07-17T20:03:19.737Z,8.77
2018-07-17T20:05:55.070Z,6.80
2018-07-17T20:08:29.956Z,9.57
2018-07-17T20:11:04.995Z,6.20
2018-07-17T20:13:40.321Z,5.00
2018-07-17T20:16:15.298Z,8.23
2018-07-17T20:18:50.476Z,4.83
2018-07-17T20:21:26.163Z,5.03
2018-07-17T20:24:01.540Z,5.03
2018-07-17T20:26:37.136Z,3.63
2018-07-17T20:29:13.731Z,4.00
2018-07-17T20:31:48.824Z,8.80
2018-07-17T20:34:23.927Z,5.00
2018-07-17T20:36:59.162Z,7.83
2018-07-17T20:39:34.425Z,4.23
2018-07-17T20:42:09.512Z,7.47
2018-07-17T20:44:44.589Z,3.93
2018-07-17T20:47:19.811Z,3.53
2018-07-17T20:49:55.093Z,5.90
2018-07-17T20:52:30.745Z,3.80
2018-07-17T20:55:05.870Z,3.13
2018-07-17T20:57:41.040Z,3.07
2018-07-17T21:00:16.077Z,4.43
2018-07-17T21:02:51.476Z,4.57
2018-07-17T21:05:26.611Z,4.00
2018-07-17T21:08:01.604Z,4.00
2018-07-17T21:10:36.591Z,3.97
2018-07-17T21:13:11.923Z,4.17
2018-07-17T21:15:47.203Z,4.07
2018-07-17T21:18:22.409Z,5.73
2018-07-17T21:20:57.560Z,7.03
2018-07-17T21:23:31.975Z,4.33
2018-07-17T21:26:07.283Z,4.60
2018-07-17T21:28:42.159Z,9.73
2018-07-17T21:31:17.061Z,5.23
2018-07-17T21:33:52.329Z,5.13
2018-07-17T21:36:28.020Z,6.60
2018-07-17T21:39:03.462Z,5.73
2018-07-17T21:41:38.632Z,10.20
2018-07-17T21:44:13.723Z,8.37
2018-07-17T21:46:48.798Z,7.20
2018-07-17T21:49:23.786Z,9.43
2018-07-17T21:51:58.911Z,10.53
2018-07-17T21:54:33.889Z,5.87
2018-07-17T21:57:09.047Z,6.67
2018-07-17T21:59:43.945Z,7.27
2018-07-17T22:02:19.092Z,9.80
2018-07-17T22:04:54.476Z,6.27
2018-07-17T22:07:29.531Z,8.27
2018-07-17T22:10:04.979Z,7.63
2018-07-17T22:12:40.143Z,7.87
2018-07-17T22:15:15.369Z,7.97
2018-07-17T22:17:50.299Z,7.33
2018-07-17T22:20:25.560Z,8.00
2018-07-17T22:23:00.733Z,6.73
2018-07-17T22:25:35.860Z,6.30
2018-07-17T22:28:10.907Z,8.80
2018-07-17T22:30:45.810Z,6.77
2018-07-17T22:33:20.806Z,6.70
2018-07-17T22:35:56.113Z,8.97
2018-07-17T22:38:31.193Z,6.40
2018-07-17T22:41:06.662Z,7.13
2018-07-17T22:43:41.798Z,6.07
2018-07-17T22:46:17.178Z,7.80
2018-07-17T22:48:52.389Z,11.97
2018-07-17T22:51:27.144Z,7.00
2018-07-17T22:54:02.483Z,8.17
2018-07-17T22:56:37.586Z,13.87
2018-07-17T22:59:12.810Z,10.30
2018-07-17T23:01:48.379Z,7.30
2018-07-17T23:04:23.268Z,9.47
2018-07-17T23:06:58.337Z,7.20
2018-07-17T23:09:33.616Z,7.77
2018-07-17T23:12:08.822Z,7.30
2018-07-17T23:14:43.853Z,9.20
2018-07-17T23:17:18.716Z,12.13
2018-07-17T23:19:53.446Z,8.23
2018-07-17T23:22:40.440Z,7.30
2018-07-17T23:25:15.167Z,8.33
2018-07-17T23:27:50.364Z,8.83
2018-07-17T23:30:25.875Z,7.73
2018-07-17T23:33:01.114Z,8.50
2018-07-17T23:35:36.098Z,10.30
2018-07-17T23:38:11.230Z,9.03
2018-07-17T23:40:46.045Z,7.23
2018-07-17T23:43:21.698Z,8.13
2018-07-17T23:45:56.702Z,10.13
2018-07-17T23:48:31.671Z,9.50
2018-07-17T23:51:06.661Z,10.33
2018-07-17T23:53:41.423Z,8.00
2018-07-17T23:56:16.470Z,8.57
2018-07-17T23:58:51.345Z,8.97
